sensor_id;sensor_type;location;lat;lon;timestamp;P1;durP1;ratioP1;P2;durP2;ratioP2
8622;SDS011;4349;47.552;8.904;2022-12-01T00:00:20;19.57;;;13.00;;
8622;SDS011;4349;47.552;8.904;2022-12-01T00:02:47;19.77;;;12.77;;
8622;SDS011;4349;47.552;8.904;2022-12-01T00:05:15;17.93;;;12.57;;
8622;SDS011;4349;47.552;8.904;2022-12-01T00:07:42;17.50;;;12.50;;
8622;SDS011;4349;47.552;8.904;2022-12-01T00:10:10;17.23;;;12.23;;
8622;SDS011;4349;47.552;8.904;2022-12-01T00:12:52;16.43;;;11.67;;
8622;SDS011;4349;47.552;8.904;2022-12-01T00:15:24;16.63;;;12.17;;
8622;SDS011;4349;47.552;8.904;2022-12-01T00:17:52;18.37;;;13.03;;
8622;SDS011;4349;47.552;8.904;2022-12-01T00:20:19;18.73;;;12.83;;
8622;SDS011;4349;47.552;8.904;2022-12-01T00:22:47;16.13;;;11.83;;
8622;SDS011;4349;47.552;8.904;2022-12-01T00:25:15;19.53;;;13.57;;
8622;SDS011;4349;47.552;8.904;2022-12-01T00:27:46;18.03;;;12.67;;
8622;SDS011;4349;47.552;8.904;2022-12-01T00:30:13;16.67;;;12.50;;
8622;SDS011;4349;47.552;8.904;2022-12-01T00:32:42;17.77;;;12.77;;
8622;SDS011;4349;47.552;8.904;2022-12-01T00:35:10;20.90;;;13.27;;
8622;SDS011;4349;47.552;8.904;2022-12-01T00:37:37;17.30;;;12.00;;
8622;SDS011;4349;47.552;8.904;2022-12-01T00:40:05;19.87;;;13.33;;
8622;SDS011;4349;47.552;8.904;2022-12-01T00:42:33;19.10;;;13.13;;
8622;SDS011;4349;47.552;8.904;2022-12-01T00:45:01;18.40;;;12.87;;
8622;SDS011;4349;47.552;8.904;2022-12-01T00:47:29;18.10;;;12.70;;
8622;SDS011;4349;47.552;8.904;2022-12-01T00:49:58;21.23;;;12.87;;
8622;SDS011;4349;47.552;8.904;2022-12-01T00:52:25;19.30;;;12.87;;
8622;SDS011;4349;47.552;8.904;2022-12-01T00:54:53;17.93;;;13.00;;
8622;SDS011;4349;47.552;8.904;2022-12-01T00:57:20;18.53;;;12.50;;
8622;SDS011;4349;47.552;8.904;2022-12-01T00:59:48;17.70;;;11.83;;
8622;SDS011;4349;47.552;8.904;2022-12-01T01:02:16;18.70;;;12.83;;
8622;SDS011;4349;47.552;8.904;2022-12-01T01:04:43;20.60;;;13.73;;
8622;SDS011;4349;47.552;8.904;2022-12-01T01:07:12;18.63;;;12.83;;
8622;SDS011;4349;47.552;8.904;2022-12-01T01:09:39;19.27;;;13.13;;
8622;SDS011;4349;47.552;8.904;2022-12-01T01:12:07;16.60;;;12.13;;
8622;SDS011;4349;47.552;8.904;2022-12-01T01:14:34;16.57;;;12.60;;
8622;SDS011;4349;47.552;8.904;2022-12-01T01:17:02;19.93;;;13.37;;
8622;SDS011;4349;47.552;8.904;2022-12-01T01:19:29;18.70;;;12.93;;
8622;SDS011;4349;47.552;8.904;2022-12-01T01:21:57;18.07;;;12.27;;
8622;SDS011;4349;47.552;8.904;2022-12-01T01:24:25;18.43;;;13.33;;
8622;SDS011;4349;47.552;8.904;2022-12-01T01:26:53;18.63;;;12.57;;
8622;SDS011;4349;47.552;8.904;2022-12-01T01:29:21;16.67;;;12.07;;
8622;SDS011;4349;47.552;8.904;2022-12-01T01:31:48;19.40;;;13.03;;
8622;SDS011;4349;47.552;8.904;2022-12-01T01:34:16;19.90;;;12.50;;
8622;SDS011;4349;47.552;8.904;2022-12-01T01:36:43;17.80;;;12.97;;
8622;SDS011;4349;47.552;8.904;2022-12-01T01:39:11;20.43;;;12.93;;
8622;SDS011;4349;47.552;8.904;2022-12-01T01:41:39;16.53;;;12.67;;
8622;SDS011;4349;47.552;8.904;2022-12-01T01:46:49;17.90;;;12.83;;
8622;SDS011;4349;47.552;8.904;2022-12-01T01:49:17;18.60;;;12.97;;
8622;SDS011;4349;47.552;8.904;2022-12-01T01:51:45;18.63;;;12.20;;
8622;SDS011;4349;47.552;8.904;2022-12-01T01:54:15;17.90;;;12.93;;
8622;SDS011;4349;47.552;8.904;2022-12-01T01:56:45;17.90;;;12.50;;
8622;SDS011;4349;47.552;8.904;2022-12-01T01:59:14;17.60;;;12.33;;
8622;SDS011;4349;47.552;8.904;2022-12-01T02:01:42;17.93;;;12.80;;
8622;SDS011;4349;47.552;8.904;2022-12-01T02:04:10;17.60;;;12.87;;
8622;SDS011;4349;47.552;8.904;2022-12-01T02:06:38;18.33;;;12.87;;
8622;SDS011;4349;47.552;8.904;2022-12-01T02:09:08;17.60;;;12.53;;
8622;SDS011;4349;47.552;8.904;2022-12-01T02:11:43;19.07;;;13.03;;
8622;SDS011;4349;47.552;8.904;2022-12-01T02:14:29;18.10;;;12.57;;
8622;SDS011;4349;47.552;8.904;2022-12-01T02:17:02;20.97;;;13.03;;
8622;SDS011;4349;47.552;8.904;2022-12-01T02:19:40;18.33;;;13.47;;
8622;SDS011;4349;47.552;8.904;2022-12-01T02:22:13;19.30;;;12.13;;
8622;SDS011;4349;47.552;8.904;2022-12-01T02:24:52;18.33;;;12.50;;
8622;SDS011;4349;47.552;8.904;2022-12-01T02:27:31;18.20;;;12.30;;
8622;SDS011;4349;47.552;8.904;2022-12-01T02:30:06;20.30;;;13.27;;
8622;SDS011;4349;47.552;8.904;2022-12-01T02:32:46;19.47;;;13.87;;
8622;SDS011;4349;47.552;8.904;2022-12-01T02:35:16;17.63;;;12.63;;
8622;SDS011;4349;47.552;8.904;2022-12-01T02:37:48;18.23;;;12.30;;
8622;SDS011;4349;47.552;8.904;2022-12-01T02:40:17;18.37;;;12.53;;
8622;SDS011;4349;47.552;8.904;2022-12-01T02:42:47;19.07;;;13.13;;
8622;SDS011;4349;47.552;8.904;2022-12-01T02:45:18;20.50;;;12.93;;
8622;SDS011;4349;47.552;8.904;2022-12-01T02:47:49;18.73;;;12.37;;
8622;SDS011;4349;47.552;8.904;2022-12-01T02:50:19;19.30;;;12.27;;
8622;SDS011;4349;47.552;8.904;2022-12-01T02:52:48;16.60;;;11.43;;
8622;SDS011;4349;47.552;8.904;2022-12-01T02:55:15;16.97;;;11.93;;
8622;SDS011;4349;47.552;8.904;2022-12-01T02:57:43;17.60;;;12.37;;
8622;SDS011;4349;47.552;8.904;2022-12-01T03:00:11;17.23;;;11.67;;
8622;SDS011;4349;47.552;8.904;2022-12-01T03:02:40;17.73;;;12.10;;
8622;SDS011;4349;47.552;8.904;2022-12-01T03:05:16;19.07;;;12.93;;
8622;SDS011;4349;47.552;8.904;2022-12-01T03:07:48;17.13;;;11.50;;
8622;SDS011;4349;47.552;8.904;2022-12-01T03:10:18;16.47;;;11.63;;
8622;SDS011;4349;47.552;8.904;2022-12-01T03:12:54;18.60;;;12.30;;
8622;SDS011;4349;47.552;8.904;2022-12-01T03:15:27;17.57;;;12.03;;
8622;SDS011;4349;47.552;8.904;2022-12-01T03:17:58;16.63;;;11.23;;
8622;SDS011;4349;47.552;8.904;2022-12-01T03:20:30;16.43;;;11.57;;
8622;SDS011;4349;47.552;8.904;2022-12-01T03:23:01;18.07;;;12.10;;
8622;SDS011;4349;47.552;8.904;2022-12-01T03:25:32;17.50;;;12.60;;
8622;SDS011;4349;47.552;8.904;2022-12-01T03:28:00;17.77;;;12.23;;
8622;SDS011;4349;47.552;8.904;2022-12-01T03:30:47;19.63;;;13.20;;
8622;SDS011;4349;47.552;8.904;2022-12-01T03:33:18;19.47;;;12.40;;
8622;SDS011;4349;47.552;8.904;2022-12-01T03:35:49;18.33;;;12.70;;
8622;SDS011;4349;47.552;8.904;2022-12-01T03:38:19;18.50;;;12.70;;
8622;SDS011;4349;47.552;8.904;2022-12-01T03:40:48;18.40;;;12.80;;
8622;SDS011;4349;47.552;8.904;2022-12-01T03:43:17;18.93;;;12.77;;
8622;SDS011;4349;47.552;8.904;2022-12-01T03:45:46;18.87;;;12.67;;
8622;SDS011;4349;47.552;8.904;2022-12-01T03:48:17;19.40;;;12.90;;
8622;SDS011;4349;47.552;8.904;2022-12-01T03:50:46;20.13;;;13.17;;
8622;SDS011;4349;47.552;8.904;2022-12-01T03:53:18;20.93;;;13.63;;
8622;SDS011;4349;47.552;8.904;2022-12-01T03:55:49;20.57;;;13.37;;
8622;SDS011;4349;47.552;8.904;2022-12-01T03:58:18;19.90;;;13.97;;
8622;SDS011;4349;47.552;8.904;2022-12-01T04:00:47;20.70;;;13.47;;
8622;SDS011;4349;47.552;8.904;2022-12-01T04:03:19;22.47;;;14.17;;
8622;SDS011;4349;47.552;8.904;2022-12-01T04:05:46;22.10;;;14.20;;
8622;SDS011;4349;47.552;8.904;2022-12-01T04:08:14;21.20;;;12.97;;
8622;SDS011;4349;47.552;8.904;2022-12-01T04:10:43;20.60;;;13.67;;
8622;SDS011;4349;47.552;8.904;2022-12-01T04:13:10;21.07;;;13.57;;
8622;SDS011;4349;47.552;8.904;2022-12-01T04:15:41;19.67;;;12.93;;
8622;SDS011;4349;47.552;8.904;2022-12-01T04:18:09;22.60;;;13.90;;
8622;SDS011;4349;47.552;8.904;2022-12-01T04:20:37;21.10;;;13.13;;
8622;SDS011;4349;47.552;8.904;2022-12-01T04:23:04;19.90;;;13.37;;
8622;SDS011;4349;47.552;8.904;2022-12-01T04:25:31;19.40;;;11.80;;
8622;SDS011;4349;47.552;8.904;2022-12-01T04:28:00;19.43;;;12.67;;
8622;SDS011;4349;47.552;8.904;2022-12-01T04:30:28;19.87;;;13.27;;
8622;SDS011;4349;47.552;8.904;2022-12-01T04:32:56;20.63;;;13.23;;
8622;SDS011;4349;47.552;8.904;2022-12-01T04:35:23;20.10;;;13.40;;
8622;SDS011;4349;47.552;8.904;2022-12-01T04:37:51;20.57;;;13.20;;
8622;SDS011;4349;47.552;8.904;2022-12-01T04:40:18;20.80;;;13.03;;
8622;SDS011;4349;47.552;8.904;2022-12-01T04:42:46;19.47;;;12.97;;
8622;SDS011;4349;47.552;8.904;2022-12-01T04:45:15;19.47;;;13.37;;
8622;SDS011;4349;47.552;8.904;2022-12-01T04:47:43;19.63;;;12.27;;
8622;SDS011;4349;47.552;8.904;2022-12-01T04:50:10;19.47;;;12.83;;
8622;SDS011;4349;47.552;8.904;2022-12-01T04:52:38;18.73;;;12.67;;
8622;SDS011;4349;47.552;8.904;2022-12-01T04:55:05;18.17;;;12.90;;
8622;SDS011;4349;47.552;8.904;2022-12-01T04:57:33;15.17;;;11.83;;
8622;SDS011;4349;47.552;8.904;2022-12-01T05:00:01;19.17;;;12.47;;
8622;SDS011;4349;47.552;8.904;2022-12-01T05:02:38;16.60;;;11.37;;
8622;SDS011;4349;47.552;8.904;2022-12-01T05:05:08;17.43;;;12.03;;
8622;SDS011;4349;47.552;8.904;2022-12-01T05:07:36;16.80;;;12.10;;
8622;SDS011;4349;47.552;8.904;2022-12-01T05:10:03;18.90;;;12.83;;
8622;SDS011;4349;47.552;8.904;2022-12-01T05:12:31;16.60;;;12.27;;
8622;SDS011;4349;47.552;8.904;2022-12-01T05:14:59;17.67;;;11.93;;
8622;SDS011;4349;47.552;8.904;2022-12-01T05:17:29;18.13;;;12.57;;
8622;SDS011;4349;47.552;8.904;2022-12-01T05:20:04;18.03;;;12.03;;
8622;SDS011;4349;47.552;8.904;2022-12-01T05:22:49;17.20;;;12.33;;
8622;SDS011;4349;47.552;8.904;2022-12-01T05:25:37;17.97;;;12.20;;
8622;SDS011;4349;47.552;8.904;2022-12-01T05:28:05;16.63;;;12.43;;
8622;SDS011;4349;47.552;8.904;2022-12-01T05:30:32;17.10;;;11.47;;
8622;SDS011;4349;47.552;8.904;2022-12-01T05:33:00;19.77;;;12.30;;
8622;SDS011;4349;47.552;8.904;2022-12-01T05:35:29;18.43;;;12.47;;
8622;SDS011;4349;47.552;8.904;2022-12-01T05:37:58;15.70;;;11.47;;
8622;SDS011;4349;47.552;8.904;2022-12-01T05:40:33;18.47;;;12.20;;
8622;SDS011;4349;47.552;8.904;2022-12-01T05:43:00;17.97;;;11.90;;
8622;SDS011;4349;47.552;8.904;2022-12-01T05:45:28;19.43;;;12.53;;
8622;SDS011;4349;47.552;8.904;2022-12-01T05:47:56;18.20;;;11.80;;
8622;SDS011;4349;47.552;8.904;2022-12-01T05:50:25;19.63;;;13.10;;
8622;SDS011;4349;47.552;8.904;2022-12-01T05:52:55;19.37;;;12.23;;
8622;SDS011;4349;47.552;8.904;2022-12-01T05:55:22;18.57;;;11.83;;
8622;SDS011;4349;47.552;8.904;2022-12-01T05:57:50;17.87;;;12.10;;
8622;SDS011;4349;47.552;8.904;2022-12-01T06:00:18;19.60;;;13.17;;
8622;SDS011;4349;47.552;8.904;2022-12-01T06:02:45;19.13;;;12.50;;
8622;SDS011;4349;47.552;8.904;2022-12-01T06:05:13;20.67;;;13.13;;
8622;SDS011;4349;47.552;8.904;2022-12-01T06:07:40;17.00;;;11.37;;
8622;SDS011;4349;47.552;8.904;2022-12-01T06:10:10;18.50;;;13.00;;
8622;SDS011;4349;47.552;8.904;2022-12-01T06:12:37;17.07;;;11.40;;
8622;SDS011;4349;47.552;8.904;2022-12-01T06:15:05;20.43;;;13.13;;
8622;SDS011;4349;47.552;8.904;2022-12-01T06:17:33;20.00;;;12.93;;
8622;SDS011;4349;47.552;8.904;2022-12-01T06:20:06;20.53;;;12.47;;
8622;SDS011;4349;47.552;8.904;2022-12-01T06:22:33;20.63;;;12.87;;
8622;SDS011;4349;47.552;8.904;2022-12-01T06:25:01;19.43;;;12.37;;
8622;SDS011;4349;47.552;8.904;2022-12-01T06:27:30;17.67;;;12.50;;
8622;SDS011;4349;47.552;8.904;2022-12-01T06:29:57;19.80;;;13.37;;
8622;SDS011;4349;47.552;8.904;2022-12-01T06:32:25;18.27;;;13.03;;
8622;SDS011;4349;47.552;8.904;2022-12-01T06:34:52;20.37;;;13.03;;
8622;SDS011;4349;47.552;8.904;2022-12-01T06:37:20;19.20;;;12.67;;
8622;SDS011;4349;47.552;8.904;2022-12-01T06:39:47;20.67;;;13.10;;
8622;SDS011;4349;47.552;8.904;2022-12-01T06:42:15;19.67;;;13.37;;
8622;SDS011;4349;47.552;8.904;2022-12-01T06:44:44;21.97;;;13.23;;
8622;SDS011;4349;47.552;8.904;2022-12-01T06:47:11;22.07;;;13.37;;
8622;SDS011;4349;47.552;8.904;2022-12-01T06:49:40;21.27;;;13.43;;
8622;SDS011;4349;47.552;8.904;2022-12-01T06:52:08;20.90;;;13.43;;
8622;SDS011;4349;47.552;8.904;2022-12-01T06:54:35;20.90;;;13.33;;
8622;SDS011;4349;47.552;8.904;2022-12-01T06:57:04;22.27;;;14.17;;
8622;SDS011;4349;47.552;8.904;2022-12-01T06:59:32;20.83;;;12.87;;
8622;SDS011;4349;47.552;8.904;2022-12-01T07:02:01;21.73;;;13.87;;
8622;SDS011;4349;47.552;8.904;2022-12-01T07:04:29;22.67;;;13.93;;
8622;SDS011;4349;47.552;8.904;2022-12-01T07:06:56;20.37;;;13.80;;
8622;SDS011;4349;47.552;8.904;2022-12-01T07:09:24;20.10;;;13.57;;
8622;SDS011;4349;47.552;8.904;2022-12-01T07:11:51;20.63;;;13.63;;
8622;SDS011;4349;47.552;8.904;2022-12-01T07:14:21;23.13;;;14.37;;
8622;SDS011;4349;47.552;8.904;2022-12-01T07:16:48;22.03;;;14.30;;
8622;SDS011;4349;47.552;8.904;2022-12-01T07:19:17;21.70;;;14.33;;
8622;SDS011;4349;47.552;8.904;2022-12-01T07:21:45;21.23;;;14.53;;
8622;SDS011;4349;47.552;8.904;2022-12-01T07:24:12;21.83;;;14.37;;
8622;SDS011;4349;47.552;8.904;2022-12-01T07:26:40;18.83;;;12.97;;
8622;SDS011;4349;47.552;8.904;2022-12-01T07:29:08;20.97;;;13.40;;
8622;SDS011;4349;47.552;8.904;2022-12-01T07:31:35;20.63;;;13.67;;
8622;SDS011;4349;47.552;8.904;2022-12-01T07:34:03;21.60;;;13.93;;
8622;SDS011;4349;47.552;8.904;2022-12-01T07:36:32;21.33;;;13.63;;
8622;SDS011;4349;47.552;8.904;2022-12-01T07:39:03;21.63;;;14.27;;
8622;SDS011;4349;47.552;8.904;2022-12-01T07:41:30;21.13;;;13.93;;
8622;SDS011;4349;47.552;8.904;2022-12-01T07:43:58;22.47;;;14.27;;
8622;SDS011;4349;47.552;8.904;2022-12-01T07:46:26;21.23;;;13.97;;
8622;SDS011;4349;47.552;8.904;2022-12-01T07:48:54;18.83;;;12.77;;
8622;SDS011;4349;47.552;8.904;2022-12-01T07:51:22;23.90;;;14.17;;
8622;SDS011;4349;47.552;8.904;2022-12-01T07:53:52;22.13;;;14.03;;
8622;SDS011;4349;47.552;8.904;2022-12-01T07:56:20;21.43;;;13.43;;
8622;SDS011;4349;47.552;8.904;2022-12-01T07:58:47;24.70;;;16.13;;
8622;SDS011;4349;47.552;8.904;2022-12-01T08:01:16;23.97;;;14.60;;
8622;SDS011;4349;47.552;8.904;2022-12-01T08:03:44;24.77;;;14.63;;
8622;SDS011;4349;47.552;8.904;2022-12-01T08:06:12;19.93;;;13.87;;
8622;SDS011;4349;47.552;8.904;2022-12-01T08:08:39;22.83;;;14.60;;
8622;SDS011;4349;47.552;8.904;2022-12-01T08:11:10;22.13;;;13.97;;
8622;SDS011;4349;47.552;8.904;2022-12-01T08:13:38;21.10;;;13.77;;
8622;SDS011;4349;47.552;8.904;2022-12-01T08:16:06;26.73;;;14.40;;
8622;SDS011;4349;47.552;8.904;2022-12-01T08:18:34;22.43;;;14.47;;
8622;SDS011;4349;47.552;8.904;2022-12-01T08:21:02;22.37;;;14.67;;
8622;SDS011;4349;47.552;8.904;2022-12-01T08:23:30;22.73;;;14.37;;
8622;SDS011;4349;47.552;8.904;2022-12-01T08:25:59;21.77;;;13.93;;
8622;SDS011;4349;47.552;8.904;2022-12-01T08:28:28;23.43;;;14.73;;
8622;SDS011;4349;47.552;8.904;2022-12-01T08:30:55;23.83;;;14.43;;
8622;SDS011;4349;47.552;8.904;2022-12-01T08:33:23;22.43;;;14.30;;
8622;SDS011;4349;47.552;8.904;2022-12-01T08:35:50;22.13;;;14.57;;
8622;SDS011;4349;47.552;8.904;2022-12-01T08:38:18;25.70;;;15.07;;
8622;SDS011;4349;47.552;8.904;2022-12-01T08:40:45;22.53;;;15.13;;
8622;SDS011;4349;47.552;8.904;2022-12-01T08:43:13;24.10;;;14.73;;
8622;SDS011;4349;47.552;8.904;2022-12-01T08:46:01;23.80;;;14.90;;
8622;SDS011;4349;47.552;8.904;2022-12-01T08:48:29;21.90;;;14.43;;
8622;SDS011;4349;47.552;8.904;2022-12-01T08:51:00;21.07;;;14.07;;
8622;SDS011;4349;47.552;8.904;2022-12-01T08:53:28;23.93;;;14.43;;
8622;SDS011;4349;47.552;8.904;2022-12-01T08:55:57;22.93;;;14.40;;
8622;SDS011;4349;47.552;8.904;2022-12-01T08:58:25;21.43;;;14.60;;
8622;SDS011;4349;47.552;8.904;2022-12-01T09:00:52;26.30;;;15.77;;
8622;SDS011;4349;47.552;8.904;2022-12-01T09:03:28;24.97;;;15.90;;
8622;SDS011;4349;47.552;8.904;2022-12-01T09:05:59;24.20;;;15.33;;
8622;SDS011;4349;47.552;8.904;2022-12-01T09:08:27;22.03;;;15.50;;
8622;SDS011;4349;47.552;8.904;2022-12-01T09:10:57;23.13;;;15.13;;
8622;SDS011;4349;47.552;8.904;2022-12-01T09:13:25;24.50;;;15.07;;
8622;SDS011;4349;47.552;8.904;2022-12-01T09:15:55;25.40;;;15.40;;
8622;SDS011;4349;47.552;8.904;2022-12-01T09:18:23;24.90;;;15.37;;
8622;SDS011;4349;47.552;8.904;2022-12-01T09:20:52;24.90;;;15.57;;
8622;SDS011;4349;47.552;8.904;2022-12-01T09:23:19;23.53;;;15.53;;
8622;SDS011;4349;47.552;8.904;2022-12-01T09:25:48;23.77;;;15.80;;
8622;SDS011;4349;47.552;8.904;2022-12-01T09:28:15;24.80;;;15.33;;
8622;SDS011;4349;47.552;8.904;2022-12-01T09:30:44;24.33;;;15.50;;
8622;SDS011;4349;47.552;8.904;2022-12-01T09:33:12;26.50;;;15.93;;
8622;SDS011;4349;47.552;8.904;2022-12-01T09:35:39;24.00;;;16.60;;
8622;SDS011;4349;47.552;8.904;2022-12-01T09:38:08;24.70;;;15.57;;
8622;SDS011;4349;47.552;8.904;2022-12-01T09:40:36;25.27;;;16.03;;
8622;SDS011;4349;47.552;8.904;2022-12-01T09:43:05;27.07;;;15.73;;
8622;SDS011;4349;47.552;8.904;2022-12-01T09:45:38;25.43;;;15.30;;
8622;SDS011;4349;47.552;8.904;2022-12-01T09:48:06;26.33;;;16.03;;
8622;SDS011;4349;47.552;8.904;2022-12-01T09:50:36;24.50;;;15.60;;
8622;SDS011;4349;47.552;8.904;2022-12-01T09:53:05;27.73;;;16.37;;
8622;SDS011;4349;47.552;8.904;2022-12-01T09:55:35;26.13;;;16.33;;
8622;SDS011;4349;47.552;8.904;2022-12-01T09:58:03;24.43;;;16.37;;
8622;SDS011;4349;47.552;8.904;2022-12-01T10:00:32;24.47;;;16.00;;
8622;SDS011;4349;47.552;8.904;2022-12-01T10:03:02;23.60;;;15.33;;
8622;SDS011;4349;47.552;8.904;2022-12-01T10:05:35;26.00;;;16.27;;
8622;SDS011;4349;47.552;8.904;2022-12-01T10:08:25;24.43;;;15.63;;
8622;SDS011;4349;47.552;8.904;2022-12-01T10:10:55;23.73;;;15.53;;
8622;SDS011;4349;47.552;8.904;2022-12-01T10:13:24;25.03;;;14.77;;
8622;SDS011;4349;47.552;8.904;2022-12-01T10:15:53;24.67;;;15.37;;
8622;SDS011;4349;47.552;8.904;2022-12-01T10:18:29;24.43;;;15.63;;
8622;SDS011;4349;47.552;8.904;2022-12-01T10:21:01;27.90;;;15.73;;
8622;SDS011;4349;47.552;8.904;2022-12-01T10:23:33;26.83;;;16.23;;
8622;SDS011;4349;47.552;8.904;2022-12-01T10:26:08;24.87;;;15.50;;
8622;SDS011;4349;47.552;8.904;2022-12-01T10:31:27;26.80;;;15.67;;
8622;SDS011;4349;47.552;8.904;2022-12-01T10:33:58;23.27;;;14.90;;
8622;SDS011;4349;47.552;8.904;2022-12-01T10:36:26;25.60;;;15.67;;
8622;SDS011;4349;47.552;8.904;2022-12-01T10:38:54;25.70;;;15.70;;
8622;SDS011;4349;47.552;8.904;2022-12-01T10:41:23;24.33;;;15.20;;
8622;SDS011;4349;47.552;8.904;2022-12-01T10:43:52;24.77;;;14.97;;
8622;SDS011;4349;47.552;8.904;2022-12-01T10:46:23;24.10;;;15.17;;
8622;SDS011;4349;47.552;8.904;2022-12-01T10:48:52;25.57;;;15.87;;
8622;SDS011;4349;47.552;8.904;2022-12-01T10:51:21;24.13;;;14.70;;
8622;SDS011;4349;47.552;8.904;2022-12-01T10:53:49;24.33;;;15.23;;
8622;SDS011;4349;47.552;8.904;2022-12-01T10:56:17;24.93;;;15.13;;
8622;SDS011;4349;47.552;8.904;2022-12-01T10:58:47;20.83;;;14.60;;
8622;SDS011;4349;47.552;8.904;2022-12-01T11:01:15;21.90;;;15.00;;
8622;SDS011;4349;47.552;8.904;2022-12-01T11:03:47;24.67;;;14.97;;
8622;SDS011;4349;47.552;8.904;2022-12-01T11:06:18;20.37;;;13.90;;
8622;SDS011;4349;47.552;8.904;2022-12-01T11:08:49;25.83;;;15.63;;
8622;SDS011;4349;47.552;8.904;2022-12-01T11:11:25;23.87;;;14.53;;
8622;SDS011;4349;47.552;8.904;2022-12-01T11:13:55;24.57;;;15.33;;
8622;SDS011;4349;47.552;8.904;2022-12-01T11:16:32;23.90;;;15.27;;
8622;SDS011;4349;47.552;8.904;2022-12-01T11:19:06;24.47;;;15.00;;
8622;SDS011;4349;47.552;8.904;2022-12-01T11:21:34;21.50;;;14.33;;
8622;SDS011;4349;47.552;8.904;2022-12-01T11:24:14;25.43;;;15.20;;
8622;SDS011;4349;47.552;8.904;2022-12-01T11:26:44;28.53;;;15.50;;
8622;SDS011;4349;47.552;8.904;2022-12-01T11:29:21;22.53;;;14.50;;
8622;SDS011;4349;47.552;8.904;2022-12-01T11:31:52;24.63;;;15.47;;
8622;SDS011;4349;47.552;8.904;2022-12-01T11:34:21;22.83;;;15.17;;
8622;SDS011;4349;47.552;8.904;2022-12-01T11:36:50;26.23;;;15.37;;
8622;SDS011;4349;47.552;8.904;2022-12-01T11:39:20;21.73;;;13.97;;
8622;SDS011;4349;47.552;8.904;2022-12-01T11:41:48;21.97;;;13.60;;
8622;SDS011;4349;47.552;8.904;2022-12-01T11:44:22;23.73;;;14.73;;
8622;SDS011;4349;47.552;8.904;2022-12-01T11:47:11;25.00;;;14.70;;
8622;SDS011;4349;47.552;8.904;2022-12-01T11:49:50;22.63;;;13.63;;
8622;SDS011;4349;47.552;8.904;2022-12-01T11:52:23;27.60;;;15.43;;
8622;SDS011;4349;47.552;8.904;2022-12-01T11:54:56;23.30;;;14.93;;
8622;SDS011;4349;47.552;8.904;2022-12-01T11:57:24;20.43;;;14.37;;
8622;SDS011;4349;47.552;8.904;2022-12-01T12:00:04;20.57;;;14.10;;
8622;SDS011;4349;47.552;8.904;2022-12-01T12:02:34;21.70;;;14.60;;
8622;SDS011;4349;47.552;8.904;2022-12-01T12:05:14;22.57;;;14.63;;
8622;SDS011;4349;47.552;8.904;2022-12-01T12:07:47;22.80;;;14.23;;
8622;SDS011;4349;47.552;8.904;2022-12-01T12:10:21;24.47;;;15.20;;
8622;SDS011;4349;47.552;8.904;2022-12-01T12:12:55;21.87;;;14.00;;
8622;SDS011;4349;47.552;8.904;2022-12-01T12:15:29;23.90;;;14.50;;
8622;SDS011;4349;47.552;8.904;2022-12-01T12:18:04;24.10;;;14.53;;
8622;SDS011;4349;47.552;8.904;2022-12-01T12:20:37;23.57;;;15.27;;
8622;SDS011;4349;47.552;8.904;2022-12-01T12:23:27;21.47;;;14.30;;
8622;SDS011;4349;47.552;8.904;2022-12-01T12:25:58;21.73;;;14.80;;
8622;SDS011;4349;47.552;8.904;2022-12-01T12:28:32;22.67;;;14.40;;
8622;SDS011;4349;47.552;8.904;2022-12-01T12:31:09;24.17;;;14.90;;
8622;SDS011;4349;47.552;8.904;2022-12-01T12:33:51;23.83;;;14.23;;
8622;SDS011;4349;47.552;8.904;2022-12-01T12:36:24;23.23;;;14.40;;
8622;SDS011;4349;47.552;8.904;2022-12-01T12:38:58;25.17;;;14.33;;
8622;SDS011;4349;47.552;8.904;2022-12-01T12:41:29;20.13;;;13.53;;
8622;SDS011;4349;47.552;8.904;2022-12-01T12:44:02;20.63;;;13.57;;
8622;SDS011;4349;47.552;8.904;2022-12-01T12:46:34;19.43;;;13.07;;
8622;SDS011;4349;47.552;8.904;2022-12-01T12:49:18;20.63;;;13.90;;
8622;SDS011;4349;47.552;8.904;2022-12-01T12:51:48;22.17;;;14.27;;
8622;SDS011;4349;47.552;8.904;2022-12-01T12:54:19;21.23;;;14.00;;
8622;SDS011;4349;47.552;8.904;2022-12-01T12:56:50;20.83;;;13.07;;
8622;SDS011;4349;47.552;8.904;2022-12-01T12:59:21;22.10;;;14.00;;
8622;SDS011;4349;47.552;8.904;2022-12-01T13:01:54;20.63;;;13.83;;
8622;SDS011;4349;47.552;8.904;2022-12-01T13:04:24;23.37;;;14.60;;
8622;SDS011;4349;47.552;8.904;2022-12-01T13:06:55;22.00;;;13.93;;
8622;SDS011;4349;47.552;8.904;2022-12-01T13:09:25;20.83;;;13.83;;
8622;SDS011;4349;47.552;8.904;2022-12-01T13:11:56;19.80;;;13.73;;
8622;SDS011;4349;47.552;8.904;2022-12-01T13:14:27;21.23;;;13.40;;
8622;SDS011;4349;47.552;8.904;2022-12-01T13:17:11;19.83;;;14.03;;
8622;SDS011;4349;47.552;8.904;2022-12-01T13:19:40;23.07;;;14.30;;
8622;SDS011;4349;47.552;8.904;2022-12-01T13:22:08;21.23;;;13.63;;
8622;SDS011;4349;47.552;8.904;2022-12-01T13:24:38;22.33;;;14.00;;
8622;SDS011;4349;47.552;8.904;2022-12-01T13:27:10;20.60;;;13.53;;
8622;SDS011;4349;47.552;8.904;2022-12-01T13:29:43;21.57;;;14.23;;
8622;SDS011;4349;47.552;8.904;2022-12-01T13:32:25;19.77;;;13.23;;
8622;SDS011;4349;47.552;8.904;2022-12-01T13:34:53;20.17;;;13.33;;
8622;SDS011;4349;47.552;8.904;2022-12-01T13:37:24;19.77;;;13.00;;
8622;SDS011;4349;47.552;8.904;2022-12-01T13:39:52;21.00;;;13.77;;
8622;SDS011;4349;47.552;8.904;2022-12-01T13:42:21;24.57;;;14.57;;
8622;SDS011;4349;47.552;8.904;2022-12-01T13:44:50;21.07;;;14.00;;
8622;SDS011;4349;47.552;8.904;2022-12-01T13:47:36;19.63;;;13.27;;
8622;SDS011;4349;47.552;8.904;2022-12-01T13:52:50;20.53;;;13.73;;
8622;SDS011;4349;47.552;8.904;2022-12-01T13:55:32;19.37;;;12.47;;
8622;SDS011;4349;47.552;8.904;2022-12-01T14:00:46;19.93;;;13.40;;
8622;SDS011;4349;47.552;8.904;2022-12-01T14:03:31;19.03;;;12.87;;
8622;SDS011;4349;47.552;8.904;2022-12-01T14:06:05;19.30;;;13.50;;
8622;SDS011;4349;47.552;8.904;2022-12-01T14:08:33;20.97;;;13.73;;
8622;SDS011;4349;47.552;8.904;2022-12-01T14:11:02;18.70;;;12.80;;
8622;SDS011;4349;47.552;8.904;2022-12-01T14:13:30;22.17;;;13.73;;
8622;SDS011;4349;47.552;8.904;2022-12-01T14:15:59;18.13;;;12.60;;
8622;SDS011;4349;47.552;8.904;2022-12-01T14:18:34;19.70;;;12.93;;
8622;SDS011;4349;47.552;8.904;2022-12-01T14:21:03;19.53;;;12.60;;
8622;SDS011;4349;47.552;8.904;2022-12-01T14:23:31;20.13;;;12.63;;
8622;SDS011;4349;47.552;8.904;2022-12-01T14:26:08;19.03;;;13.27;;
8622;SDS011;4349;47.552;8.904;2022-12-01T14:31:24;19.43;;;12.73;;
8622;SDS011;4349;47.552;8.904;2022-12-01T14:34:16;20.90;;;13.50;;
8622;SDS011;4349;47.552;8.904;2022-12-01T14:36:45;19.87;;;13.13;;
8622;SDS011;4349;47.552;8.904;2022-12-01T14:39:14;21.00;;;15.20;;
8622;SDS011;4349;47.552;8.904;2022-12-01T14:41:44;20.73;;;14.03;;
8622;SDS011;4349;47.552;8.904;2022-12-01T14:44:15;17.93;;;13.73;;
8622;SDS011;4349;47.552;8.904;2022-12-01T14:46:47;21.67;;;13.90;;
8622;SDS011;4349;47.552;8.904;2022-12-01T14:49:17;19.70;;;13.77;;
8622;SDS011;4349;47.552;8.904;2022-12-01T14:51:47;19.73;;;13.60;;
8622;SDS011;4349;47.552;8.904;2022-12-01T14:54:19;22.23;;;13.33;;
8622;SDS011;4349;47.552;8.904;2022-12-01T14:56:49;20.07;;;13.67;;
8622;SDS011;4349;47.552;8.904;2022-12-01T14:59:19;20.30;;;13.53;;
8622;SDS011;4349;47.552;8.904;2022-12-01T15:01:48;20.07;;;13.40;;
8622;SDS011;4349;47.552;8.904;2022-12-01T15:04:17;18.47;;;13.07;;
8622;SDS011;4349;47.552;8.904;2022-12-01T15:06:45;22.13;;;13.57;;
8622;SDS011;4349;47.552;8.904;2022-12-01T15:09:14;21.63;;;13.70;;
8622;SDS011;4349;47.552;8.904;2022-12-01T15:12:00;22.17;;;13.20;;
8622;SDS011;4349;47.552;8.904;2022-12-01T15:14:29;19.83;;;13.97;;
8622;SDS011;4349;47.552;8.904;2022-12-01T15:16:57;22.37;;;14.03;;
8622;SDS011;4349;47.552;8.904;2022-12-01T15:19:31;20.10;;;13.20;;